createdAt,value
2022-09-06T00:00:54.409Z,22.36
2022-09-06T00:03:49.028Z,22.17
2022-09-06T00:07:06.423Z,22.07
2022-09-06T00:10:52.618Z,22.15
2022-09-06T00:13:22.470Z,22.12
2022-09-06T00:16:45.596Z,22.00
2022-09-06T00:19:25.982Z,21.88
2022-09-06T00:22:30.566Z,21.90
2022-09-06T00:31:21.646Z,21.95
2022-09-06T00:32:57.045Z,22.05
2022-09-06T00:35:57.224Z,21.73
2022-09-06T00:39:24.580Z,21.72
2022-09-06T00:42:20.955Z,21.40
2022-09-06T00:46:16.994Z,21.57
2022-09-06T00:49:08.520Z,21.18
2022-09-06T00:52:11.224Z,21.26
2022-09-06T00:55:29.945Z,21.67
2022-09-06T00:58:26.863Z,21.38
2022-09-06T01:01:29.639Z,21.36
2022-09-06T01:04:42.523Z,21.10
2022-09-06T01:07:56.966Z,21.37
2022-09-06T01:11:08.599Z,20.91
2022-09-06T01:14:08.379Z,20.90
2022-09-06T01:17:13.340Z,20.89
2022-09-06T01:24:33.948Z,20.91
2022-09-06T01:27:24.887Z,20.75
2022-09-06T01:30:17.080Z,21.01
2022-09-06T01:33:15.717Z,20.74
2022-09-06T01:36:18.855Z,20.80
2022-09-06T01:39:15.223Z,20.74
2022-09-06T01:42:27.965Z,20.73
2022-09-06T01:45:40.419Z,20.72
2022-09-06T01:49:16.291Z,20.58
2022-09-06T01:51:55.061Z,20.06
2022-09-06T01:56:17.636Z,20.28
2022-09-06T01:58:20.839Z,20.69
2022-09-06T02:01:23.040Z,20.40
2022-09-06T02:04:20.318Z,20.24
2022-09-06T02:07:23.031Z,20.15
2022-09-06T02:10:47.945Z,20.53
2022-09-06T02:14:00.991Z,20.88
2022-09-06T02:17:09.146Z,20.64
2022-09-06T02:22:57.207Z,20.28
2022-09-06T02:25:58.827Z,19.89
2022-09-06T02:28:45.009Z,20.41
2022-09-06T02:31:43.815Z,20.19
2022-09-06T02:35:04.148Z,20.27
2022-09-06T02:37:37.501Z,19.94
2022-09-06T02:40:22.565Z,19.92
2022-09-06T02:46:51.767Z,20.08
2022-09-06T02:49:39.176Z,20.09
2022-09-06T06:16:22.760Z,21.59
2022-09-06T06:26:20.005Z,22.18
2022-09-06T06:43:19.651Z,22.45
2022-09-06T06:46:21.044Z,22.33
2022-09-06T06:50:09.242Z,22.66
2022-09-06T06:53:24.417Z,23.01
2022-09-06T06:58:03.661Z,22.97
2022-09-06T07:02:05.738Z,23.26
2022-09-06T07:11:46.839Z,23.10
2022-09-06T07:18:47.517Z,23.84
2022-09-06T07:21:46.350Z,23.91
2022-09-06T07:24:41.300Z,24.20
2022-09-06T07:27:51.587Z,24.31
2022-09-06T07:38:28.606Z,24.92
2022-09-06T08:00:10.765Z,25.43
2022-09-06T08:02:55.666Z,25.19
2022-09-06T08:22:09.724Z,25.83
2022-09-06T08:30:35.132Z,26.33
2022-09-06T08:40:35.263Z,26.93
2022-09-06T08:43:40.302Z,27.05
2022-09-06T08:46:13.128Z,27.26
2022-09-06T08:48:44.449Z,27.13
2022-09-06T08:51:38.352Z,27.58
2022-09-06T08:54:17.322Z,27.61
2022-09-06T08:57:08.981Z,27.76
2022-09-06T08:59:40.716Z,27.78
2022-09-06T09:02:16.645Z,27.73
2022-09-06T09:04:48.737Z,27.99
2022-09-06T09:07:23.178Z,28.28
2022-09-06T09:09:59.193Z,28.32
2022-09-06T09:12:34.592Z,28.29
2022-09-06T09:15:20.263Z,28.49
2022-09-06T09:18:15.536Z,28.37
2022-09-06T09:21:42.052Z,28.48
2022-09-06T09:24:16.343Z,28.49
2022-09-06T09:27:34.143Z,28.61
2022-09-06T09:33:39.305Z,28.59
2022-09-06T09:36:35.343Z,28.99
2022-09-06T09:39:27.804Z,29.11
2022-09-06T09:42:46.162Z,29.52
2022-09-06T09:46:33.973Z,29.56
2022-09-06T09:54:01.713Z,29.92
2022-09-06T09:57:25.036Z,29.96
2022-09-06T10:01:16.038Z,30.00
2022-09-06T10:05:44.994Z,30.23
2022-09-06T10:12:14.954Z,30.65
2022-09-06T10:15:02.511Z,30.92
2022-09-06T10:18:10.045Z,31.11
2022-09-06T10:25:25.850Z,31.04
2022-09-06T10:28:12.325Z,31.13
2022-09-06T10:31:30.488Z,31.20
2022-09-06T10:34:10.894Z,31.27
2022-09-06T10:37:33.785Z,31.48
2022-09-06T10:40:49.099Z,31.38
2022-09-06T10:43:42.322Z,31.57
2022-09-06T10:46:27.527Z,31.63
2022-09-06T10:48:58.549Z,31.89
2022-09-06T10:51:39.307Z,31.66
2022-09-06T10:54:28.333Z,31.81
2022-09-06T11:00:14.682Z,31.08
2022-09-06T11:02:48.490Z,30.52
2022-09-06T11:11:39.324Z,30.69
2022-09-06T11:14:25.545Z,30.79
2022-09-06T11:17:13.697Z,31.00
2022-09-06T11:20:06.130Z,31.23
2022-09-06T11:22:50.764Z,31.49
2022-09-06T11:25:41.732Z,31.62
2022-09-06T11:28:17.135Z,31.88
2022-09-06T11:30:51.354Z,31.86
2022-09-06T11:33:26.659Z,31.24
2022-09-06T11:36:26.183Z,31.47
2022-09-06T11:38:58.863Z,31.87
2022-09-06T11:41:31.941Z,31.97
2022-09-06T11:44:01.049Z,32.29
2022-09-06T11:46:33.429Z,31.99
2022-09-06T11:49:33.398Z,31.39
2022-09-06T11:52:04.020Z,32.02
2022-09-06T11:54:43.095Z,31.84
2022-09-06T11:57:22.677Z,31.91
2022-09-06T12:00:00.653Z,32.16
2022-09-06T12:02:36.540Z,32.26
2022-09-06T12:05:09.799Z,32.67
2022-09-06T12:07:39.166Z,32.33
2022-09-06T12:10:40.960Z,32.06
2022-09-06T12:13:50.752Z,31.79
2022-09-06T12:16:19.116Z,32.05
2022-09-06T12:18:47.543Z,32.33
2022-09-06T12:21:34.026Z,32.17
2022-09-06T12:24:03.721Z,31.81
2022-09-06T12:26:55.718Z,31.73
2022-09-06T12:29:27.018Z,32.27
2022-09-06T12:32:01.867Z,32.84
2022-09-06T12:34:33.581Z,32.70
2022-09-06T12:37:08.854Z,32.68
2022-09-06T12:40:02.119Z,32.61
2022-09-06T12:42:38.096Z,32.46
2022-09-06T12:45:08.140Z,32.23
2022-09-06T12:47:41.943Z,32.41
2022-09-06T12:50:20.354Z,32.52
2022-09-06T12:52:59.405Z,33.08
2022-09-06T12:55:30.963Z,32.45
2022-09-06T12:58:08.243Z,32.52
2022-09-06T13:00:40.602Z,32.90
2022-09-06T13:03:30.827Z,32.82
2022-09-06T13:06:02.623Z,32.97
2022-09-06T13:08:38.892Z,32.86
2022-09-06T13:11:11.037Z,32.54
2022-09-06T13:13:50.446Z,32.45
2022-09-06T13:16:28.834Z,32.27
2022-09-06T13:19:11.933Z,32.18
2022-09-06T13:21:41.963Z,32.31
2022-09-06T13:24:23.377Z,32.21
2022-09-06T13:26:52.630Z,31.70
2022-09-06T13:29:26.017Z,31.54
2022-09-06T13:31:56.124Z,31.63
2022-09-06T13:34:31.286Z,31.81
2022-09-06T13:37:08.673Z,31.51
2022-09-06T13:39:38.384Z,31.56
2022-09-06T13:42:08.328Z,31.76
2022-09-06T13:44:39.443Z,32.01
2022-09-06T13:47:07.399Z,32.13
2022-09-06T13:49:35.068Z,32.00
2022-09-06T13:52:08.293Z,31.50
2022-09-06T13:54:36.860Z,31.56
2022-09-06T13:57:05.010Z,31.59
2022-09-06T13:59:33.064Z,31.51
2022-09-06T14:02:07.043Z,31.24
2022-09-06T14:04:36.364Z,31.35
2022-09-06T14:07:05.229Z,31.45
2022-09-06T14:09:33.786Z,31.12
2022-09-06T14:12:02.621Z,31.07
2022-09-06T14:14:34.043Z,30.74
2022-09-06T14:17:02.098Z,31.08
2022-09-06T14:19:30.223Z,30.89
2022-09-06T14:21:58.364Z,30.87
2022-09-06T14:24:27.324Z,30.42
2022-09-06T14:26:55.792Z,30.12
2022-09-06T14:29:23.869Z,30.38
2022-09-06T14:31:53.024Z,30.42
2022-09-06T14:34:21.835Z,30.39
2022-09-06T14:36:55.567Z,30.39
2022-09-06T14:39:24.007Z,30.30
2022-09-06T14:41:52.389Z,30.24
2022-09-06T14:44:22.242Z,30.23
2022-09-06T14:46:53.583Z,30.41
2022-09-06T14:49:23.668Z,30.55
2022-09-06T14:51:53.935Z,30.44
2022-09-06T14:54:26.106Z,30.46
2022-09-06T14:56:56.724Z,30.64
2022-09-06T14:59:26.256Z,30.60
2022-09-06T15:01:55.106Z,30.74
2022-09-06T15:04:23.490Z,30.89
2022-09-06T15:06:52.516Z,30.91
2022-09-06T15:09:21.013Z,30.60
2022-09-06T15:11:51.863Z,30.41
2022-09-06T15:14:29.797Z,30.03
2022-09-06T15:17:00.228Z,29.27
2022-09-06T15:19:30.140Z,29.06
2022-09-06T15:22:00.420Z,28.33
2022-09-06T15:24:29.438Z,27.85
2022-09-06T15:27:00.285Z,26.67
2022-09-06T15:29:29.381Z,26.65
2022-09-06T15:32:00.890Z,26.84
2022-09-06T15:34:35.357Z,26.13
2022-09-06T15:37:04.843Z,25.63
2022-09-06T15:39:36.447Z,25.43
2022-09-06T15:42:05.391Z,25.48
2022-09-06T15:44:34.414Z,25.50
2022-09-06T15:47:05.129Z,25.19
2022-09-06T15:49:32.994Z,25.34
2022-09-06T15:52:03.841Z,25.08
2022-09-06T15:54:50.653Z,25.44
2022-09-06T15:57:19.198Z,25.50
2022-09-06T15:59:47.856Z,25.72
2022-09-06T16:02:16.260Z,25.71
2022-09-06T16:04:45.997Z,26.02
2022-09-06T16:07:14.428Z,26.23
2022-09-06T16:09:42.666Z,26.15
2022-09-06T16:12:12.188Z,26.15
2022-09-06T16:14:41.147Z,25.99
2022-09-06T16:17:10.151Z,26.02
2022-09-06T16:19:40.184Z,25.85
2022-09-06T16:22:07.878Z,25.80
2022-09-06T16:24:35.988Z,25.91
2022-09-06T16:27:07.382Z,25.93
2022-09-06T16:29:38.473Z,26.09
2022-09-06T16:32:07.912Z,25.92
2022-09-06T16:34:40.679Z,25.69
2022-09-06T16:37:09.709Z,25.82
2022-09-06T16:39:38.791Z,25.24
2022-09-06T16:42:07.874Z,24.89
2022-09-06T16:44:38.341Z,25.03
2022-09-06T16:47:06.365Z,24.68
2022-09-06T16:49:37.542Z,25.07
2022-09-06T16:52:06.454Z,25.12
2022-09-06T16:54:34.853Z,24.94
2022-09-06T16:57:03.174Z,24.99
2022-09-06T16:59:31.273Z,25.06
2022-09-06T17:01:59.596Z,24.94
2022-09-06T17:04:28.945Z,25.04
2022-09-06T17:06:57.211Z,25.15
2022-09-06T17:09:25.383Z,25.63
2022-09-06T17:11:55.433Z,25.40
2022-09-06T17:14:24.101Z,25.53
2022-09-06T17:17:07.621Z,25.23
2022-09-06T17:19:38.079Z,25.21
2022-09-06T17:22:06.545Z,25.39
2022-09-06T17:24:35.145Z,24.91
2022-09-06T17:27:05.183Z,24.95
2022-09-06T17:29:33.522Z,25.07
2022-09-06T17:32:05.468Z,24.78
2022-09-06T17:34:38.167Z,24.33
2022-09-06T17:37:08.533Z,23.94
2022-09-06T17:39:43.213Z,23.47
2022-09-06T17:42:11.984Z,23.54
2022-09-06T17:44:41.337Z,23.79
2022-09-06T17:47:13.387Z,23.56
2022-09-06T17:49:43.015Z,23.69
2022-09-06T17:52:11.952Z,23.23
2022-09-06T17:54:40.516Z,23.34
2022-09-06T17:57:08.920Z,23.14
2022-09-06T17:59:38.694Z,23.30
2022-09-06T18:02:07.987Z,23.34
2022-09-06T18:04:39.155Z,23.15
2022-09-06T18:07:07.346Z,22.88
2022-09-06T18:09:40.975Z,22.97
2022-09-06T18:12:09.767Z,22.93
2022-09-06T18:14:39.840Z,23.03
2022-09-06T18:17:10.215Z,23.26
2022-09-06T18:19:39.805Z,23.18
2022-09-06T18:22:12.014Z,23.47
2022-09-06T18:24:42.580Z,23.01
2022-09-06T18:27:10.665Z,23.33
2022-09-06T18:29:39.727Z,23.60
2022-09-06T18:32:10.097Z,23.42
2022-09-06T18:34:39.686Z,23.71
2022-09-06T18:37:09.714Z,23.71
2022-09-06T18:39:38.034Z,23.77
2022-09-06T18:42:11.595Z,23.62
2022-09-06T18:44:44.159Z,23.29
2022-09-06T18:47:13.538Z,23.17
2022-09-06T18:49:44.316Z,22.64
2022-09-06T18:52:13.492Z,22.85
2022-09-06T18:54:44.319Z,23.08
2022-09-06T18:57:15.959Z,23.41
2022-09-06T18:59:44.886Z,23.48
2022-09-06T19:02:13.474Z,23.48
2022-09-06T19:04:42.153Z,23.60
2022-09-06T19:07:12.645Z,23.47
2022-09-06T19:09:43.311Z,23.14
2022-09-06T19:12:12.744Z,23.48
2022-09-06T19:14:42.030Z,23.41
2022-09-06T19:17:13.860Z,23.31
2022-09-06T19:19:44.147Z,23.23
2022-09-06T19:22:12.226Z,22.85
2022-09-06T19:24:40.725Z,22.77
2022-09-06T19:27:09.581Z,23.01
2022-09-06T19:29:39.349Z,23.10
2022-09-06T19:32:10.417Z,23.08
2022-09-06T19:34:39.832Z,22.98
2022-09-06T19:37:08.099Z,22.94
2022-09-06T19:39:39.140Z,22.61
2022-09-06T19:42:09.640Z,22.29
2022-09-06T19:44:39.278Z,22.24
2022-09-06T19:47:09.320Z,22.40
2022-09-06T19:49:38.156Z,22.23
2022-09-06T19:54:41.316Z,22.51
2022-09-06T19:57:10.022Z,22.35
2022-09-06T19:59:39.562Z,21.72
2022-09-06T20:02:09.890Z,21.73
2022-09-06T20:04:41.938Z,21.65
2022-09-06T20:07:10.688Z,21.67
2022-09-06T20:09:43.254Z,21.46
2022-09-06T20:12:12.552Z,21.45
2022-09-06T20:14:42.783Z,21.56
2022-09-06T20:17:32.772Z,21.40
2022-09-06T20:20:04.764Z,21.39
2022-09-06T20:22:34.579Z,21.62
2022-09-06T20:25:06.661Z,21.25
2022-09-06T20:27:39.300Z,21.05
2022-09-06T20:30:13.748Z,21.25
2022-09-06T20:32:46.951Z,21.00
2022-09-06T20:35:18.751Z,21.15
2022-09-06T20:37:48.922Z,21.63
2022-09-06T20:40:18.900Z,21.64
2022-09-06T20:42:47.937Z,21.65
2022-09-06T20:45:25.658Z,21.72
2022-09-06T20:47:58.142Z,21.29
2022-09-06T20:50:28.240Z,21.01
2022-09-06T20:52:56.710Z,21.20
2022-09-06T20:55:26.463Z,21.29
2022-09-06T20:57:57.747Z,21.44
2022-09-06T21:00:27.035Z,21.83
2022-09-06T21:02:57.971Z,21.55
2022-09-06T21:05:26.490Z,21.31
2022-09-06T21:07:54.712Z,21.56
2022-09-06T21:10:23.334Z,21.57
2022-09-06T21:12:52.601Z,21.40
2022-09-06T21:15:21.498Z,21.42
2022-09-06T21:17:50.397Z,21.31
2022-09-06T21:20:18.795Z,21.06
2022-09-06T21:22:47.371Z,21.27
2022-09-06T21:25:16.319Z,21.29
2022-09-06T21:27:47.057Z,21.54
2022-09-06T21:30:14.972Z,21.60
2022-09-06T21:32:43.471Z,21.56
2022-09-06T21:35:14.035Z,21.80
2022-09-06T21:37:43.951Z,21.86
2022-09-06T21:40:12.436Z,21.64
2022-09-06T21:42:42.736Z,21.43
2022-09-06T21:45:11.337Z,21.54
2022-09-06T21:47:42.808Z,21.77
2022-09-06T21:52:41.793Z,22.00
2022-09-06T21:55:14.932Z,21.60
2022-09-06T21:57:46.569Z,21.50
2022-09-06T22:00:15.565Z,21.80
2022-09-06T22:02:48.471Z,21.72
2022-09-06T22:05:21.436Z,21.83
2022-09-06T22:07:50.145Z,21.98
2022-09-06T22:10:20.684Z,22.00
2022-09-06T22:12:56.746Z,22.21
2022-09-06T22:15:31.715Z,22.13
2022-09-06T22:18:04.703Z,22.29
2022-09-06T22:20:39.651Z,22.02
2022-09-06T22:23:10.741Z,21.85
2022-09-06T22:25:44.817Z,22.25
2022-09-06T22:28:15.647Z,22.41
2022-09-06T22:30:47.366Z,22.30
2022-09-06T22:33:20.078Z,21.97
2022-09-06T22:35:49.460Z,22.22
2022-09-06T22:38:21.556Z,22.19
2022-09-06T22:40:55.813Z,22.00
2022-09-06T22:43:29.792Z,21.74
2022-09-06T22:46:06.470Z,21.58
2022-09-06T22:48:38.531Z,21.81
2022-09-06T22:51:10.910Z,21.60
2022-09-06T22:53:47.391Z,21.57
2022-09-06T22:56:16.824Z,21.40
2022-09-06T22:58:48.857Z,21.53
2022-09-06T23:01:20.146Z,21.64
2022-09-06T23:03:53.556Z,21.45
2022-09-06T23:06:23.495Z,21.64
2022-09-06T23:08:55.639Z,21.62
2022-09-06T23:11:28.538Z,21.66
2022-09-06T23:14:01.401Z,21.71
2022-09-06T23:16:31.256Z,21.54
2022-09-06T23:19:05.157Z,21.48
2022-09-06T23:21:34.785Z,21.35
2022-09-06T23:24:08.989Z,21.59
2022-09-06T23:26:40.971Z,21.60
2022-09-06T23:29:15.048Z,21.71
2022-09-06T23:31:47.693Z,21.68
2022-09-06T23:34:25.048Z,21.67
2022-09-06T23:37:00.570Z,21.12
2022-09-06T23:39:32.737Z,20.73
2022-09-06T23:42:05.057Z,21.06
2022-09-06T23:44:37.979Z,21.37
2022-09-06T23:47:10.702Z,21.01
2022-09-06T23:49:46.850Z,21.18
2022-09-06T23:52:17.365Z,21.45
2022-09-06T23:54:49.813Z,21.39
2022-09-06T23:57:20.458Z,20.97
2022-09-06T23:59:50.845Z,21.22
